Data for 08/19/2007

Time Sea-Level Adjusted Pressure Absolute Pressure Temperature Relative Humidity Dew Point   
(mb) (inHg) (mb) (inHg) (C) (F) (%) (C) (F)
00:05 1014 29.94 843 24.89 17.3 63.1 62 9.9 49.8
00:10 1014 29.94 843 24.89 17.1 62.9 62 9.9 49.9
00:15 1014 29.94 843 24.89 17.5 63.6 59 9.5 49.2
00:20 1014 29.94 843 24.89 17.6 63.6 60 9.8 49.6
00:25 1014 29.94 843 24.89 17.3 63.2 60 9.6 49.3
00:30 1014 29.94 843 24.89 17.2 62.9 61 9.7 49.5
00:35 1014 29.94 843 24.89 17.2 62.9 62 9.8 49.6
00:40 1014 29.94 843 24.89 17.3 63.1 61 9.8 49.6
00:45 1014 29.94 843 24.89 17.3 63.1 61 9.8 49.7
00:50 1014 29.94 844 24.92 17.3 63.1 61 9.8 49.7
00:55 1014 29.94 844 24.92 17.2 63 61 9.6 49.4
01:00 1014 29.94 844 24.92 17.1 62.9 61 9.8 49.6
01:05 1015 29.97 844 24.92 16.9 62.5 62 9.7 49.5
01:10 1015 29.97 844 24.92 16.8 62.2 62 9.6 49.2
01:15 1015 29.97 844 24.92 16.8 62.3 62 9.6 49.3
01:20 1015 29.97 844 24.92 16.9 62.4 62 9.6 49.3
01:25 1015 29.97 844 24.92 16.7 62 63 9.7 49.4
01:30 1015 29.97 844 24.92 16.6 61.8 63 9.6 49.3
01:35 1015 29.97 844 24.92 16.5 61.7 64 9.8 49.6
01:40 1015 29.97 844 24.92 16.3 61.3 65 9.8 49.6
01:45 1015 29.97 844 24.92 16.3 61.4 65 9.8 49.7
01:50 1015 29.97 844 24.92 16.4 61.5 66 10 50
01:55 1015 29.97 844 24.92 16.3 61.3 67 10.3 50.5
02:00 1015 29.97 844 24.92 16.2 61.1 68 10.2 50.4
02:05 1015 29.97 844 24.92 16.1 60.9 69 10.4 50.7
02:10 1015 29.97 844 24.92 15.9 60.7 70 10.5 50.8
02:15 1015 29.97 844 24.92 15.8 60.4 70 10.4 50.8
02:20 1015 29.97 844 24.92 15.7 60.2 71 10.5 50.8
02:25 1015 29.97 844 24.92 15.5 59.9 71 10.4 50.7
02:30 1015 29.97 844 24.92 15.3 59.6 73 10.5 50.9
02:35 1015 29.97 844 24.92 15.1 59.2 73 10.3 50.5
02:40 1015 29.97 844 24.92 15.3 59.6 70 10 50
02:45 1015 29.97 844 24.92 15.5 60 70 10.2 50.3
02:50 1015 29.97 844 24.92 15.6 60 70 10.2 50.4
02:55 1015 29.97 844 24.92 15.6 60 69 9.9 49.8
03:00 1015 29.97 844 24.92 15.7 60.2 70 10.3 50.5
03:05 1015 29.97 844 24.92 15.3 59.6 70 10 49.9
03:10 1014 29.94 844 24.92 15.2 59.3 70 9.8 49.6
03:15 1015 29.97 844 24.92 15 59 71 9.9 49.8
03:20 1015 29.97 844 24.92 15.2 59.3 69 9.6 49.3
03:25 1015 29.97 844 24.92 15.3 59.5 69 9.6 49.4
03:30 1014 29.94 844 24.92 15 59 71 9.9 49.8
03:35 1015 29.97 844 24.92 14.5 58.2 72 9.6 49.3
03:40 1015 29.97 844 24.92 14.5 58.1 71 9.5 49
03:45 1014 29.94 844 24.92 14.8 58.6 70 9.4 48.9
03:50 1014 29.94 844 24.92 15 59 69 9.4 49
03:55 1014 29.94 844 24.92 14.5 58.1 71 9.3 48.8
04:00 1014 29.94 844 24.92 14.1 57.3 73 9.3 48.8
04:05 1014 29.94 844 24.92 13.9 57 73 9.2 48.5
04:10 1014 29.94 844 24.92 13.8 56.8 73 9 48.2
04:15 1014 29.94 843 24.89 13.9 56.9 71 8.7 47.7
04:20 1014 29.94 843 24.89 14.5 58.1 68 8.8 47.9
04:25 1014 29.94 843 24.89 14.6 58.3 69 8.9 48.1
04:30 1014 29.94 843 24.89 14.6 58.4 69 9 48.2
04:35 1014 29.94 843 24.89 14.5 58 67 8.6 47.4
04:40 1014 29.94 843 24.89 14.6 58.3 67 8.7 47.6
04:45 1014 29.94 843 24.89 14.2 57.6 69 8.6 47.5
04:50 1014 29.94 843 24.89 13.9 57.1 69 8.4 47.1
04:55 1014 29.94 843 24.89 14.1 57.3 67 8.2 46.7
05:00 1014 29.94 843 24.89 14.2 57.5 66 8 46.4
05:05 1014 29.94 843 24.89 13.9 57.1 68 8.2 46.7
05:10 1014 29.94 843 24.89 13.6 56.4 68 7.9 46.2
05:15 1014 29.94 843 24.89 13.6 56.4 68 7.9 46.3
05:20 1014 29.94 843 24.89 13.6 56.4 68 7.9 46.2
05:25 1014 29.94 843 24.89 13.5 56.3 68 7.8 46.1
05:30 1014 29.94 843 24.89 13.7 56.6 66 7.6 45.6
05:35 1014 29.94 843 24.89 14.1 57.4 65 7.6 45.7
05:40 1014 29.94 843 24.89 14 57.2 66 7.7 45.8
05:45 1014 29.94 843 24.89 13.7 56.6 66 7.5 45.5
05:50 1014 29.94 843 24.89 13.7 56.7 66 7.6 45.6
05:55 1014 29.94 843 24.89 13.8 56.9 66 7.7 45.8
06:00 1014 29.94 843 24.89 14 57.3 64 7.4 45.4
06:05 1014 29.94 843 24.89 14.2 57.5 63 7.3 45.1
06:10 1014 29.94 843 24.89 14.4 57.9 62 7.2 45
06:15 1014 29.94 843 24.89 14.2 57.6 64 7.5 45.5
06:20 1014 29.94 843 24.89 14.1 57.5 63 7.2 45
06:25 1014 29.94 843 24.89 14.5 58.2 61 7.3 45.1
06:30 1014 29.94 843 24.89 14.5 58.2 62 7.5 45.4
06:35 1014 29.94 843 24.89 14.4 58 62 7.3 45.2
06:40 1014 29.94 843 24.89 14.4 57.9 63 7.5 45.5
06:45 1014 29.94 843 24.89 14.2 57.5 63 7.4 45.3
06:50 1014 29.94 843 24.89 14.1 57.3 64 7.3 45.2
06:55 1014 29.94 843 24.89 14.2 57.5 63 7.3 45.1
07:00 1014 29.94 843 24.89 14.4 57.8 62 7.3 45.2
07:05 1014 29.94 843 24.89 14.3 57.7 62 7.3 45.1
07:10 1014 29.94 843 24.89 14.2 57.5 62 7 44.6
07:15 1014 29.94 843 24.89 14.4 57.9 61 7.1 44.7
07:20 1014 29.94 843 24.89 14.5 58.2 62 7.4 45.3
07:25 1014 29.94 843 24.89 14.6 58.3 61 7.3 45.2
07:30 1014 29.94 843 24.89 14.5 58.1 62 7.3 45.2
07:35 1014 29.94 843 24.89 14.6 58.2 61 7.3 45.1
07:40 1014 29.94 843 24.89 14.8 58.6 60 7.2 45
07:45 1014 29.94 843 24.89 15.2 59.3 59 7.3 45.2
07:50 1014 29.94 843 24.89 15.4 59.7 59 7.6 45.7
07:55 1014 29.94 843 24.89 15.5 59.9 59 7.5 45.6
08:00 1014 29.94 843 24.89 15.6 60.1 59 7.7 45.8
08:05 1014 29.94 843 24.89 15.9 60.5 57 7.5 45.5
08:10 1014 29.94 843 24.89 16.5 61.6 55 7.6 45.6
08:15 1014 29.94 843 24.89 16.9 62.4 55 7.8 46
08:20 1014 29.94 843 24.89 17.1 62.9 54 8 46.3
08:25 1014 29.94 843 24.89 17.6 63.7 53 7.9 46.2
08:30 1014 29.94 843 24.89 17.7 63.8 52 7.8 46.1
08:35 1014 29.94 843 24.89 17.8 64.1 52 8 46.5
08:40 1014 29.94 843 24.89 18.3 64.9 51 8.1 46.5
08:45 1014 29.94 843 24.89 18.6 65.6 49 7.9 46.2
08:50 1014 29.94 843 24.89 19.1 66.4 48 8 46.4
08:55 1013 29.91 843 24.89 19.4 66.8 49 8.4 47.1
09:00 1013 29.91 843 24.89 19.8 67.6 48 8.5 47.3
09:05 1013 29.91 843 24.89 20.3 68.5 46 8.6 47.4
09:10 1013 29.91 843 24.89 20.6 69 45 8.5 47.3
09:15 1013 29.91 842 24.86 20.9 69.7 44 8.4 47
09:20 1013 29.91 842 24.86 21.3 70.4 46 9.3 48.8
09:25 1013 29.91 842 24.86 21.3 70.3 46 9.2 48.6
09:30 1013 29.91 842 24.86 21.8 71.2 47 10 50.1
09:35 1013 29.91 842 24.86 21.9 71.5 48 10.6 51
09:40 1013 29.91 842 24.86 21.7 71 48 10.4 50.7
09:45 1013 29.91 842 24.86 21.9 71.5 46 10.1 50.1
09:50 1013 29.91 842 24.86 22.2 72 49 11 51.8
09:55 1013 29.91 842 24.86 21.6 70.9 52 11.3 52.4
10:00 1013 29.91 842 24.86 21.2 70.2 51 10.7 51.3
10:05 1013 29.91 842 24.86 22.1 71.8 50 11.5 52.6
10:10 1012 29.88 842 24.86 22.5 72.5 50 11.6 52.8
10:15 1012 29.88 842 24.86 22.4 72.4 50 11.8 53.2
10:20 1012 29.88 842 24.86 22.7 72.8 50 11.8 53.2
10:25 1012 29.88 841 24.83 23.6 74.5 45 11.1 51.9
10:30 1012 29.88 841 24.83 23.3 74 48 11.9 53.4
10:35 1012 29.88 841 24.83 23.2 73.7 48 11.7 53
10:40 1012 29.88 841 24.83 24.2 75.6 43 11.2 52.1
10:45 1012 29.88 841 24.83 25 76.9 43 11.8 53.2
10:50 1012 29.88 841 24.83 25.1 77.2 42 11.5 52.7
10:55 1012 29.88 841 24.83 25.3 77.6 42 11.8 53.3
11:00 1012 29.88 841 24.83 25.7 78.3 39 11.1 52
11:05 1012 29.88 841 24.83 25.5 77.9 41 11.7 53
11:10 1012 29.88 841 24.83 25.9 78.6 39 11.1 52
11:15 1012 29.88 841 24.83 26.4 79.4 38 11 51.8
11:20 1012 29.88 841 24.83 26.8 80.2 37 11.1 52
11:25 1012 29.88 841 24.83 27.5 81.5 33 10 50
11:30 1012 29.88 841 24.83 27.2 80.9 37 11.6 52.9
11:35 1012 29.88 841 24.83 26.5 79.7 38 11.1 52
11:40 1012 29.88 841 24.83 26.1 78.9 40 11.5 52.6
11:45 1012 29.88 841 24.83 25.8 78.5 38 10.6 51.1
11:50 1011 29.85 841 24.83 27.4 81.4 32 9.5 49.1
11:55 1011 29.85 841 24.83 27.3 81.1 35 10.8 51.5
12:00 1011 29.85 840 24.81 26.8 80.3 35 10.5 50.9
12:05 1011 29.85 840 24.81 26.6 79.8 35 10 49.9
12:10 1011 29.85 840 24.81 27.1 80.7 37 11.6 52.9
12:15 1011 29.85 840 24.81 26.8 80.2 35 10.4 50.8
12:20 1011 29.85 840 24.81 26.9 80.5 35 10.5 50.9
12:25 1011 29.85 840 24.81 27 80.5 33 9.4 48.9
12:30 1011 29.85 840 24.81 28 82.3 31 9.6 49.3
12:35 1011 29.85 840 24.81 28.5 83.3 27 7.9 46.3
12:40 1010 29.83 840 24.81 28.3 83 29 8.7 47.7
12:45 1010 29.83 839 24.78 28.9 84 25 7.5 45.5
12:50 1010 29.83 839 24.78 29.1 84.3 26 8 46.3
12:55 1010 29.83 839 24.78 28.8 83.8 28 8.5 47.3
13:00 1010 29.83 839 24.78 29.6 85.2 24 7.4 45.2
13:05 1010 29.83 839 24.78 31 87.8 24 8.4 47.1
13:10 1010 29.83 839 24.78 30.1 86.3 26 8.7 47.7
13:15 1010 29.83 839 24.78 29.7 85.5 23 7 44.5
13:20 1010 29.83 839 24.78 29.3 84.8 24 6.8 44.2
13:25 1010 29.83 839 24.78 29.5 85 22 5.9 42.5
13:30 1010 29.83 839 24.78 29.4 84.9 21 5.4 41.8
13:35 1010 29.83 839 24.78 29.5 85 21 5.5 41.9
13:40 1009 29.8 839 24.78 29.6 85.2 22 6.2 43.2
13:45 1009 29.8 839 24.78 29.4 85 21 5.3 41.5
13:50 1009 29.8 839 24.78 29.5 85.1 20 4.6 40.3
13:55 1009 29.8 838 24.75 29.5 85.2 22 5.7 42.3
14:00 1009 29.8 838 24.75 29.2 84.6 22 5.8 42.4
14:05 1009 29.8 838 24.75 29.4 84.8 21 5 41
14:10 1009 29.8 838 24.75 29.5 85 21 5.3 41.5
14:15 1009 29.8 838 24.75 29.3 84.7 21 4.9 40.9
14:20 1009 29.8 838 24.75 29.4 84.8 21 5.4 41.7
14:25 1009 29.8 838 24.75 29.4 85 21 5.2 41.4
14:30 1009 29.8 838 24.75 29 84.2 22 5.3 41.5
14:35 1008 29.77 838 24.75 29.1 84.4 19 3.8 38.8
14:40 1008 29.77 838 24.75 29.6 85.3 21 5 41
14:45 1008 29.77 837 24.72 29.8 85.6 20 5 41
14:50 1008 29.77 837 24.72 29.7 85.4 19 4.1 39.3
14:55 1008 29.77 837 24.72 29.5 85.2 18 3 37.4
15:00 1008 29.77 837 24.72 29.5 85.1 19 3.8 38.8
15:05 1008 29.77 837 24.72 29.2 84.5 19 3.7 38.6
15:10 1008 29.77 837 24.72 29.2 84.5 19 3.7 38.7
15:15 1008 29.77 837 24.72 29.1 84.4 20 3.9 39
15:20 1008 29.77 837 24.72 29.2 84.5 20 4.6 40.2
15:25 1008 29.77 837 24.72 29.3 84.7 18 3.1 37.6
15:30 1008 29.77 837 24.72 29 84.2 19 3.3 38
15:35 1008 29.77 837 24.72 28.8 83.9 21 4.7 40.4
15:40 1008 29.77 837 24.72 28.6 83.5 22 4.9 40.9
15:45 1008 29.77 837 24.72 28.3 83 21 4.4 40
15:50 1007 29.74 837 24.72 28.3 82.9 21 3.9 39
15:55 1007 29.74 836 24.69 28.1 82.6 21 3.8 38.8
16:00 1007 29.74 836 24.69 28.2 82.8 22 4.8 40.7
16:05 1007 29.74 837 24.72 28.3 83 20 3.7 38.7
16:10 1007 29.74 837 24.72 28.4 83.1 20 3.8 38.8
16:15 1007 29.74 836 24.69 28.6 83.4 20 3.6 38.4
16:20 1007 29.74 836 24.69 28.7 83.7 21 4.2 39.6
16:25 1007 29.74 837 24.72 28.7 83.6 21 4.4 39.9
16:30 1007 29.74 836 24.69 28.8 83.8 20 3.6 38.4
16:35 1007 29.74 837 24.72 28.6 83.4 21 4.6 40.3
16:40 1007 29.74 837 24.72 28.6 83.5 21 4.8 40.6
16:45 1007 29.74 837 24.72 28.5 83.4 22 5.2 41.4
16:50 1007 29.74 836 24.69 28.4 83.1 21 4.6 40.2
16:55 1007 29.74 836 24.69 28.7 83.7 23 5.7 42.2
17:00 1007 29.74 836 24.69 29 84.2 20 4.3 39.7
17:05 1007 29.74 836 24.69 29.3 84.7 16 1.1 34
17:10 1007 29.74 836 24.69 29.4 84.9 18 3.3 38
17:15 1007 29.74 836 24.69 29.5 85.1 14 0 32
17:20 1007 29.74 836 24.69 28.8 83.8 15 -0.1 31.8
17:25 1007 29.74 836 24.69 28.6 83.5 15 -0.3 31.5
17:30 1007 29.74 836 24.69 28.5 83.3 15 -0.7 30.8
17:35 1007 29.74 836 24.69 28.3 82.9 14 -1.6 29.1
17:40 1007 29.74 836 24.69 28.4 83.2 14 -1.7 28.9
17:45 1007 29.74 836 24.69 28.4 83.2 13 -2 28.5
17:50 1007 29.74 837 24.72 28.3 82.9 13 -2.4 27.7
17:55 1007 29.74 836 24.69 28.5 83.3 13 -2.4 27.7
18:00 1007 29.74 837 24.72 28.7 83.6 13 -1.8 28.7
18:05 1008 29.77 837 24.72 28.6 83.6 14 -0.9 30.4
18:10 1008 29.77 837 24.72 28.2 82.8 15 -0.8 30.6
18:15 1008 29.77 837 24.72 27.7 81.9 14 -2 28.3
18:20 1008 29.77 837 24.72 27.4 81.4 15 -0.8 30.6
18:25 1008 29.77 837 24.72 27.1 80.9 15 -1.2 29.8
18:30 1008 29.77 837 24.72 27 80.5 15 -1.5 29.3
18:35 1008 29.77 837 24.72 26.9 80.5 16 -0.9 30.3
18:40 1008 29.77 837 24.72 27 80.6 14 -2.1 28.2
18:45 1008 29.77 837 24.72 27.4 81.3 14 -2 28.3
18:50 1008 29.77 837 24.72 27.4 81.3 14 -1.9 28.5
18:55 1008 29.77 837 24.72 27.5 81.4 14 -1.9 28.6
19:00 1008 29.77 838 24.75 27.3 81.1 12 -4.4 24.1
19:05 1009 29.8 838 24.75 26 78.7 13 -4.5 23.9
19:10 1009 29.8 838 24.75 25.1 77.2 13 -5.1 22.8
19:15 1009 29.8 838 24.75 24.9 76.7 13 -5.3 22.5
19:20 1009 29.8 838 24.75 24.8 76.6 13 -5.4 22.3
19:25 1009 29.8 838 24.75 24.7 76.5 13 -5.4 22.3
19:30 1009 29.8 838 24.75 24.7 76.5 13 -5.4 22.3
19:35 1009 29.8 838 24.75 24.8 76.7 13 -5.6 22
19:40 1009 29.8 838 24.75 24.8 76.7 13 -4.9 23.2
19:45 1009 29.8 838 24.75 24.7 76.5 14 -4.7 23.5
19:50 1009 29.8 839 24.78 24.5 76 14 -4.2 24.5
19:55 1009 29.8 839 24.78 24.2 75.5 15 -3.6 25.6
20:00 1010 29.83 839 24.78 23.9 75 19 -0.9 30.3
20:05 1010 29.83 839 24.78 23.1 73.5 24 1.8 35.3
20:10 1010 29.83 839 24.78 22.3 72.2 25 1.8 35.2
20:15 1010 29.83 839 24.78 22 71.7 26 1.6 34.9
20:20 1010 29.83 839 24.78 22.2 71.9 20 -1.9 28.5
20:25 1010 29.83 839 24.78 22.4 72.4 19 -2.1 28.3
20:30 1010 29.83 840 24.81 22.4 72.3 20 -1.7 29
20:35 1011 29.85 840 24.81 22.1 71.8 23 0.3 32.6
20:40 1011 29.85 840 24.81 21.6 70.9 26 1.3 34.3
20:45 1011 29.85 840 24.81 21.3 70.3 25 0.9 33.5
20:50 1011 29.85 840 24.81 21.1 70 25 0.7 33.3
20:55 1011 29.85 841 24.83 21.1 70 25 0.7 33.3
21:00 1012 29.88 841 24.83 21 69.7 26 0.8 33.5
21:05 1012 29.88 841 24.83 20.7 69.2 26 0.8 33.4
21:10 1012 29.88 841 24.83 20.5 68.9 27 1 33.9
21:15 1012 29.88 841 24.83 20.5 68.8 26 0.5 33
21:20 1012 29.88 841 24.83 20.4 68.8 26 0.4 32.6
21:25 1012 29.88 841 24.83 20.4 68.8 26 0.2 32.4
21:30 1012 29.88 841 24.83 20.5 68.9 25 0.1 32.2
21:35 1012 29.88 841 24.83 20.6 69.1 24 -0.6 31
21:40 1012 29.88 841 24.83 20.7 69.2 25 -0.2 31.7
21:45 1012 29.88 841 24.83 20.5 68.8 25 -0 32
21:50 1012 29.88 841 24.83 20.4 68.6 25 -0.3 31.4
21:55 1012 29.88 842 24.86 20.3 68.5 25 -0.1 31.8
22:00 1012 29.88 842 24.86 20.2 68.4 26 0.3 32.6
22:05 1012 29.88 842 24.86 20 67.9 26 0.2 32.4
22:10 1012 29.88 842 24.86 19.9 67.8 27 0.5 32.9
22:15 1012 29.88 842 24.86 19.6 67.3 28 0.5 33
22:20 1012 29.88 842 24.86 19.5 67 27 0.1 32.2
22:25 1012 29.88 842 24.86 19.7 67.5 26 -0.3 31.5
22:30 1012 29.88 842 24.86 19.8 67.6 26 0 32.1
22:35 1012 29.88 842 24.86 19.6 67.3 27 0.1 32.2
22:40 1012 29.88 842 24.86 19.7 67.4 27 0.4 32.7
22:45 1012 29.88 842 24.86 19.3 66.8 29 1.2 34.1
22:50 1012 29.88 842 24.86 19 66.2 28 0.4 32.7
22:55 1012 29.88 842 24.86 19 66.3 29 0.5 32.9
23:00 1013 29.91 842 24.86 19 66.3 28 0.3 32.6
23:05 1013 29.91 842 24.86 18.8 65.8 29 0.6 33.1
23:10 1013 29.91 842 24.86 18.5 65.4 30 0.6 33.1
23:15 1013 29.91 842 24.86 18.3 64.9 31 0.8 33.5
23:20 1013 29.91 842 24.86 18 64.5 31 0.9 33.6
23:25 1013 29.91 842 24.86 18 64.3 31 0.9 33.6
23:30 1013 29.91 842 24.86 17.9 64.1 32 0.9 33.6
23:35 1013 29.91 842 24.86 17.8 64 31 0.7 33.3
23:40 1013 29.91 842 24.86 17.7 63.9 33 1.6 34.8
23:45 1013 29.91 842 24.86 17.7 63.8 31 0.6 33.1
23:50 1013 29.91 842 24.86 17.6 63.7 31 0.2 32.4
23:55 1013 29.91 842 24.86 17.7 63.8 31 0.4 32.7
24:00 1013 29.91 843 24.89 17.6 63.6 31 0.4 32.7